sensor_id;sensor_type;location;lat;lon;timestamp;P1;durP1;ratioP1;P2;durP2;ratioP2
4827;SDS011;2428;48.732;9.148;2023-05-07T00:00:24;3.13;;;2.83;;
4827;SDS011;2428;48.732;9.148;2023-05-07T00:02:49;3.23;;;2.70;;
4827;SDS011;2428;48.732;9.148;2023-05-07T00:05:15;2.67;;;2.50;;
4827;SDS011;2428;48.732;9.148;2023-05-07T00:07:41;3.00;;;2.70;;
4827;SDS011;2428;48.732;9.148;2023-05-07T00:10:07;3.67;;;2.87;;
4827;SDS011;2428;48.732;9.148;2023-05-07T00:12:32;2.67;;;2.43;;
4827;SDS011;2428;48.732;9.148;2023-05-07T00:15:04;1.80;;;1.70;;
4827;SDS011;2428;48.732;9.148;2023-05-07T00:17:30;2.60;;;2.40;;
4827;SDS011;2428;48.732;9.148;2023-05-07T00:19:56;2.50;;;2.27;;
4827;SDS011;2428;48.732;9.148;2023-05-07T00:22:21;2.27;;;2.10;;
4827;SDS011;2428;48.732;9.148;2023-05-07T00:24:47;2.67;;;2.47;;
4827;SDS011;2428;48.732;9.148;2023-05-07T00:27:12;2.33;;;2.13;;
4827;SDS011;2428;48.732;9.148;2023-05-07T00:29:38;2.70;;;2.47;;
4827;SDS011;2428;48.732;9.148;2023-05-07T00:32:04;2.33;;;2.13;;
4827;SDS011;2428;48.732;9.148;2023-05-07T00:34:30;3.00;;;2.43;;
4827;SDS011;2428;48.732;9.148;2023-05-07T00:36:55;1.90;;;1.80;;
4827;SDS011;2428;48.732;9.148;2023-05-07T00:39:21;3.70;;;2.13;;
4827;SDS011;2428;48.732;9.148;2023-05-07T00:41:46;2.13;;;2.03;;
4827;SDS011;2428;48.732;9.148;2023-05-07T00:44:12;2.27;;;2.17;;
4827;SDS011;2428;48.732;9.148;2023-05-07T00:46:38;2.13;;;1.93;;
4827;SDS011;2428;48.732;9.148;2023-05-07T00:49:03;2.53;;;2.30;;
4827;SDS011;2428;48.732;9.148;2023-05-07T00:51:30;2.50;;;2.07;;
4827;SDS011;2428;48.732;9.148;2023-05-07T00:53:57;2.10;;;1.70;;
4827;SDS011;2428;48.732;9.148;2023-05-07T00:56:23;2.20;;;2.10;;
4827;SDS011;2428;48.732;9.148;2023-05-07T00:58:49;1.83;;;1.73;;
4827;SDS011;2428;48.732;9.148;2023-05-07T01:01:15;2.70;;;2.50;;
4827;SDS011;2428;48.732;9.148;2023-05-07T01:03:41;3.23;;;2.93;;
4827;SDS011;2428;48.732;9.148;2023-05-07T01:06:07;4.03;;;2.60;;
4827;SDS011;2428;48.732;9.148;2023-05-07T01:08:35;2.20;;;2.03;;
4827;SDS011;2428;48.732;9.148;2023-05-07T01:11:01;2.17;;;2.07;;
4827;SDS011;2428;48.732;9.148;2023-05-07T01:13:27;3.00;;;2.33;;
4827;SDS011;2428;48.732;9.148;2023-05-07T01:15:53;2.93;;;2.73;;
4827;SDS011;2428;48.732;9.148;2023-05-07T01:18:19;3.17;;;2.13;;
4827;SDS011;2428;48.732;9.148;2023-05-07T01:20:45;2.50;;;2.30;;
4827;SDS011;2428;48.732;9.148;2023-05-07T01:23:10;2.67;;;2.37;;
4827;SDS011;2428;48.732;9.148;2023-05-07T01:25:37;2.43;;;2.27;;
4827;SDS011;2428;48.732;9.148;2023-05-07T01:28:02;4.00;;;2.47;;
4827;SDS011;2428;48.732;9.148;2023-05-07T01:30:28;3.37;;;2.57;;
4827;SDS011;2428;48.732;9.148;2023-05-07T01:33:06;2.47;;;2.27;;
4827;SDS011;2428;48.732;9.148;2023-05-07T01:35:36;3.93;;;2.40;;
4827;SDS011;2428;48.732;9.148;2023-05-07T01:38:05;2.77;;;2.47;;
4827;SDS011;2428;48.732;9.148;2023-05-07T01:40:31;3.30;;;2.50;;
4827;SDS011;2428;48.732;9.148;2023-05-07T01:42:59;2.40;;;2.20;;
4827;SDS011;2428;48.732;9.148;2023-05-07T01:45:25;2.03;;;1.60;;
4827;SDS011;2428;48.732;9.148;2023-05-07T01:47:50;3.13;;;2.70;;
4827;SDS011;2428;48.732;9.148;2023-05-07T01:50:18;2.97;;;2.27;;
4827;SDS011;2428;48.732;9.148;2023-05-07T01:52:45;2.47;;;2.27;;
4827;SDS011;2428;48.732;9.148;2023-05-07T01:55:11;2.40;;;2.20;;
4827;SDS011;2428;48.732;9.148;2023-05-07T01:57:37;2.53;;;2.33;;
4827;SDS011;2428;48.732;9.148;2023-05-07T02:00:03;2.10;;;1.93;;
4827;SDS011;2428;48.732;9.148;2023-05-07T02:02:30;2.33;;;2.13;;
4827;SDS011;2428;48.732;9.148;2023-05-07T02:04:55;2.40;;;2.20;;
4827;SDS011;2428;48.732;9.148;2023-05-07T02:07:21;2.10;;;1.97;;
4827;SDS011;2428;48.732;9.148;2023-05-07T02:09:47;3.90;;;2.77;;
4827;SDS011;2428;48.732;9.148;2023-05-07T02:12:12;2.50;;;2.30;;
4827;SDS011;2428;48.732;9.148;2023-05-07T02:14:38;2.70;;;2.50;;
4827;SDS011;2428;48.732;9.148;2023-05-07T02:17:03;2.33;;;2.20;;
4827;SDS011;2428;48.732;9.148;2023-05-07T02:19:29;2.00;;;1.90;;
4827;SDS011;2428;48.732;9.148;2023-05-07T02:21:55;2.50;;;2.30;;
4827;SDS011;2428;48.732;9.148;2023-05-07T02:24:20;2.77;;;2.57;;
4827;SDS011;2428;48.732;9.148;2023-05-07T02:26:46;2.03;;;1.93;;
4827;SDS011;2428;48.732;9.148;2023-05-07T02:29:11;1.90;;;1.73;;
4827;SDS011;2428;48.732;9.148;2023-05-07T02:31:37;2.97;;;2.07;;
4827;SDS011;2428;48.732;9.148;2023-05-07T02:34:02;2.43;;;2.23;;
4827;SDS011;2428;48.732;9.148;2023-05-07T02:36:28;2.43;;;2.27;;
4827;SDS011;2428;48.732;9.148;2023-05-07T02:38:54;3.20;;;2.73;;
4827;SDS011;2428;48.732;9.148;2023-05-07T02:41:20;2.57;;;2.37;;
4827;SDS011;2428;48.732;9.148;2023-05-07T02:43:45;2.90;;;2.70;;
4827;SDS011;2428;48.732;9.148;2023-05-07T02:46:11;2.90;;;2.43;;
4827;SDS011;2428;48.732;9.148;2023-05-07T02:48:37;2.30;;;2.10;;
4827;SDS011;2428;48.732;9.148;2023-05-07T02:51:03;2.53;;;2.30;;
4827;SDS011;2428;48.732;9.148;2023-05-07T02:53:28;2.80;;;2.30;;
4827;SDS011;2428;48.732;9.148;2023-05-07T02:55:58;2.37;;;2.17;;
4827;SDS011;2428;48.732;9.148;2023-05-07T02:58:24;2.60;;;2.40;;
4827;SDS011;2428;48.732;9.148;2023-05-07T03:00:50;3.47;;;2.57;;
4827;SDS011;2428;48.732;9.148;2023-05-07T03:03:16;2.33;;;2.13;;
4827;SDS011;2428;48.732;9.148;2023-05-07T03:05:42;2.67;;;2.43;;
4827;SDS011;2428;48.732;9.148;2023-05-07T03:08:08;2.60;;;2.40;;
4827;SDS011;2428;48.732;9.148;2023-05-07T03:10:35;3.47;;;2.63;;
4827;SDS011;2428;48.732;9.148;2023-05-07T03:13:01;2.67;;;2.47;;
4827;SDS011;2428;48.732;9.148;2023-05-07T03:15:27;2.13;;;2.00;;
4827;SDS011;2428;48.732;9.148;2023-05-07T03:17:52;2.10;;;1.90;;
4827;SDS011;2428;48.732;9.148;2023-05-07T03:20:18;3.00;;;2.23;;
4827;SDS011;2428;48.732;9.148;2023-05-07T03:22:43;2.33;;;2.23;;
4827;SDS011;2428;48.732;9.148;2023-05-07T03:25:09;4.43;;;2.93;;
4827;SDS011;2428;48.732;9.148;2023-05-07T03:27:35;2.50;;;2.30;;
4827;SDS011;2428;48.732;9.148;2023-05-07T03:30:01;2.03;;;1.93;;
4827;SDS011;2428;48.732;9.148;2023-05-07T03:32:27;3.30;;;2.30;;
4827;SDS011;2428;48.732;9.148;2023-05-07T03:34:52;2.80;;;2.60;;
4827;SDS011;2428;48.732;9.148;2023-05-07T03:37:18;2.53;;;2.30;;
4827;SDS011;2428;48.732;9.148;2023-05-07T03:39:44;3.30;;;2.67;;
4827;SDS011;2428;48.732;9.148;2023-05-07T03:42:09;2.50;;;2.40;;
4827;SDS011;2428;48.732;9.148;2023-05-07T03:44:35;3.37;;;2.00;;
4827;SDS011;2428;48.732;9.148;2023-05-07T03:47:01;2.33;;;2.13;;
4827;SDS011;2428;48.732;9.148;2023-05-07T03:49:27;2.27;;;2.17;;
4827;SDS011;2428;48.732;9.148;2023-05-07T03:51:53;3.27;;;2.80;;
4827;SDS011;2428;48.732;9.148;2023-05-07T03:54:19;2.30;;;2.13;;
4827;SDS011;2428;48.732;9.148;2023-05-07T03:56:44;2.60;;;2.40;;
4827;SDS011;2428;48.732;9.148;2023-05-07T03:59:11;2.30;;;2.20;;
4827;SDS011;2428;48.732;9.148;2023-05-07T04:01:38;3.37;;;3.17;;
4827;SDS011;2428;48.732;9.148;2023-05-07T04:04:03;4.40;;;3.10;;
4827;SDS011;2428;48.732;9.148;2023-05-07T04:06:29;3.57;;;3.37;;
4827;SDS011;2428;48.732;9.148;2023-05-07T04:08:55;3.83;;;2.70;;
4827;SDS011;2428;48.732;9.148;2023-05-07T04:11:21;4.90;;;3.00;;
4827;SDS011;2428;48.732;9.148;2023-05-07T04:13:46;3.40;;;3.10;;
4827;SDS011;2428;48.732;9.148;2023-05-07T04:16:12;3.20;;;2.60;;
4827;SDS011;2428;48.732;9.148;2023-05-07T04:18:37;2.73;;;2.10;;
4827;SDS011;2428;48.732;9.148;2023-05-07T04:21:03;2.67;;;2.47;;
4827;SDS011;2428;48.732;9.148;2023-05-07T04:23:29;1.80;;;1.70;;
4827;SDS011;2428;48.732;9.148;2023-05-07T04:25:55;2.03;;;1.90;;
4827;SDS011;2428;48.732;9.148;2023-05-07T04:28:21;2.10;;;2.00;;
4827;SDS011;2428;48.732;9.148;2023-05-07T04:30:46;3.90;;;2.70;;
4827;SDS011;2428;48.732;9.148;2023-05-07T04:33:13;2.47;;;2.00;;
4827;SDS011;2428;48.732;9.148;2023-05-07T04:35:41;2.57;;;2.37;;
4827;SDS011;2428;48.732;9.148;2023-05-07T04:38:07;2.43;;;2.30;;
4827;SDS011;2428;48.732;9.148;2023-05-07T04:40:33;2.57;;;2.37;;
4827;SDS011;2428;48.732;9.148;2023-05-07T04:43:00;2.90;;;2.63;;
4827;SDS011;2428;48.732;9.148;2023-05-07T04:45:26;3.70;;;2.63;;
4827;SDS011;2428;48.732;9.148;2023-05-07T04:47:51;3.17;;;2.93;;
4827;SDS011;2428;48.732;9.148;2023-05-07T04:50:17;2.27;;;2.13;;
4827;SDS011;2428;48.732;9.148;2023-05-07T04:52:44;2.87;;;2.60;;
4827;SDS011;2428;48.732;9.148;2023-05-07T04:55:10;2.23;;;1.83;;
4827;SDS011;2428;48.732;9.148;2023-05-07T04:57:36;2.83;;;2.63;;
4827;SDS011;2428;48.732;9.148;2023-05-07T05:00:03;2.97;;;2.27;;
4827;SDS011;2428;48.732;9.148;2023-05-07T05:02:29;3.23;;;2.93;;
4827;SDS011;2428;48.732;9.148;2023-05-07T05:04:56;2.90;;;2.60;;
4827;SDS011;2428;48.732;9.148;2023-05-07T05:07:21;3.70;;;2.37;;
4827;SDS011;2428;48.732;9.148;2023-05-07T05:09:47;2.57;;;2.37;;
4827;SDS011;2428;48.732;9.148;2023-05-07T05:12:12;2.03;;;1.93;;
4827;SDS011;2428;48.732;9.148;2023-05-07T05:14:38;2.47;;;2.27;;
4827;SDS011;2428;48.732;9.148;2023-05-07T05:17:03;2.80;;;2.50;;
4827;SDS011;2428;48.732;9.148;2023-05-07T05:19:29;2.37;;;2.17;;
4827;SDS011;2428;48.732;9.148;2023-05-07T05:21:54;2.00;;;1.80;;
4827;SDS011;2428;48.732;9.148;2023-05-07T05:24:20;2.97;;;2.77;;
4827;SDS011;2428;48.732;9.148;2023-05-07T05:26:46;1.90;;;1.80;;
4827;SDS011;2428;48.732;9.148;2023-05-07T05:29:11;2.57;;;2.13;;
4827;SDS011;2428;48.732;9.148;2023-05-07T05:31:37;2.13;;;1.70;;
4827;SDS011;2428;48.732;9.148;2023-05-07T05:34:02;4.47;;;3.00;;
4827;SDS011;2428;48.732;9.148;2023-05-07T05:36:28;2.40;;;2.20;;
4827;SDS011;2428;48.732;9.148;2023-05-07T05:38:54;2.93;;;2.63;;
4827;SDS011;2428;48.732;9.148;2023-05-07T05:41:20;4.07;;;2.90;;
4827;SDS011;2428;48.732;9.148;2023-05-07T05:43:46;2.90;;;2.70;;
4827;SDS011;2428;48.732;9.148;2023-05-07T05:46:12;3.10;;;2.43;;
4827;SDS011;2428;48.732;9.148;2023-05-07T05:48:37;3.40;;;2.67;;
4827;SDS011;2428;48.732;9.148;2023-05-07T05:51:03;2.20;;;2.10;;
4827;SDS011;2428;48.732;9.148;2023-05-07T05:53:28;2.47;;;2.20;;
4827;SDS011;2428;48.732;9.148;2023-05-07T05:55:54;2.50;;;1.87;;
4827;SDS011;2428;48.732;9.148;2023-05-07T05:58:20;2.67;;;2.43;;
4827;SDS011;2428;48.732;9.148;2023-05-07T06:00:45;2.13;;;1.80;;
4827;SDS011;2428;48.732;9.148;2023-05-07T06:03:13;3.03;;;2.83;;
4827;SDS011;2428;48.732;9.148;2023-05-07T06:05:38;2.60;;;2.40;;
4827;SDS011;2428;48.732;9.148;2023-05-07T06:08:04;1.93;;;1.83;;
4827;SDS011;2428;48.732;9.148;2023-05-07T06:10:30;2.07;;;1.90;;
4827;SDS011;2428;48.732;9.148;2023-05-07T06:12:56;3.20;;;2.70;;
4827;SDS011;2428;48.732;9.148;2023-05-07T06:15:22;2.90;;;2.40;;
4827;SDS011;2428;48.732;9.148;2023-05-07T06:17:47;2.73;;;2.53;;
4827;SDS011;2428;48.732;9.148;2023-05-07T06:20:14;2.20;;;2.00;;
4827;SDS011;2428;48.732;9.148;2023-05-07T06:22:39;2.10;;;1.90;;
4827;SDS011;2428;48.732;9.148;2023-05-07T06:25:05;1.90;;;1.80;;
4827;SDS011;2428;48.732;9.148;2023-05-07T06:27:31;2.63;;;2.43;;
4827;SDS011;2428;48.732;9.148;2023-05-07T06:29:57;2.40;;;2.20;;
4827;SDS011;2428;48.732;9.148;2023-05-07T06:32:22;2.50;;;2.07;;
4827;SDS011;2428;48.732;9.148;2023-05-07T06:34:48;2.60;;;1.90;;
4827;SDS011;2428;48.732;9.148;2023-05-07T06:37:13;2.50;;;2.30;;
4827;SDS011;2428;48.732;9.148;2023-05-07T06:39:39;2.10;;;2.00;;
4827;SDS011;2428;48.732;9.148;2023-05-07T06:42:07;3.40;;;2.07;;
4827;SDS011;2428;48.732;9.148;2023-05-07T06:44:35;2.23;;;2.03;;
4827;SDS011;2428;48.732;9.148;2023-05-07T06:47:01;2.30;;;2.10;;
4827;SDS011;2428;48.732;9.148;2023-05-07T06:49:26;3.03;;;2.60;;
4827;SDS011;2428;48.732;9.148;2023-05-07T06:51:52;2.67;;;2.47;;
4827;SDS011;2428;48.732;9.148;2023-05-07T06:54:18;2.33;;;2.13;;
4827;SDS011;2428;48.732;9.148;2023-05-07T06:56:43;5.13;;;1.87;;
4827;SDS011;2428;48.732;9.148;2023-05-07T06:59:09;2.73;;;2.50;;
4827;SDS011;2428;48.732;9.148;2023-05-07T07:01:34;2.93;;;2.37;;
4827;SDS011;2428;48.732;9.148;2023-05-07T07:04:00;3.00;;;2.77;;
4827;SDS011;2428;48.732;9.148;2023-05-07T07:06:25;3.10;;;2.80;;
4827;SDS011;2428;48.732;9.148;2023-05-07T07:08:51;2.93;;;2.67;;
4827;SDS011;2428;48.732;9.148;2023-05-07T07:11:17;3.23;;;2.57;;
4827;SDS011;2428;48.732;9.148;2023-05-07T07:13:42;2.57;;;2.30;;
4827;SDS011;2428;48.732;9.148;2023-05-07T07:16:08;3.10;;;2.63;;
4827;SDS011;2428;48.732;9.148;2023-05-07T07:18:34;3.60;;;2.60;;
4827;SDS011;2428;48.732;9.148;2023-05-07T07:21:00;3.53;;;3.23;;
4827;SDS011;2428;48.732;9.148;2023-05-07T07:23:26;2.83;;;2.60;;
4827;SDS011;2428;48.732;9.148;2023-05-07T07:25:51;2.50;;;1.93;;
4827;SDS011;2428;48.732;9.148;2023-05-07T07:28:17;7.43;;;2.90;;
4827;SDS011;2428;48.732;9.148;2023-05-07T07:30:45;3.00;;;2.70;;
4827;SDS011;2428;48.732;9.148;2023-05-07T07:33:11;2.40;;;2.23;;
4827;SDS011;2428;48.732;9.148;2023-05-07T07:35:37;2.90;;;2.60;;
4827;SDS011;2428;48.732;9.148;2023-05-07T07:38:02;2.53;;;2.40;;
4827;SDS011;2428;48.732;9.148;2023-05-07T07:40:28;3.30;;;2.90;;
4827;SDS011;2428;48.732;9.148;2023-05-07T07:42:54;3.83;;;2.43;;
4827;SDS011;2428;48.732;9.148;2023-05-07T07:45:19;3.23;;;2.70;;
4827;SDS011;2428;48.732;9.148;2023-05-07T07:47:45;2.80;;;2.60;;
4827;SDS011;2428;48.732;9.148;2023-05-07T07:50:11;2.50;;;2.30;;
4827;SDS011;2428;48.732;9.148;2023-05-07T07:52:37;3.00;;;2.70;;
4827;SDS011;2428;48.732;9.148;2023-05-07T07:55:02;3.10;;;2.27;;
4827;SDS011;2428;48.732;9.148;2023-05-07T07:57:29;3.07;;;2.10;;
4827;SDS011;2428;48.732;9.148;2023-05-07T07:59:55;2.77;;;2.43;;
4827;SDS011;2428;48.732;9.148;2023-05-07T08:02:21;2.90;;;2.70;;
4827;SDS011;2428;48.732;9.148;2023-05-07T08:04:46;2.40;;;2.20;;
4827;SDS011;2428;48.732;9.148;2023-05-07T08:07:12;3.50;;;3.00;;
4827;SDS011;2428;48.732;9.148;2023-05-07T08:09:38;4.80;;;2.80;;
4827;SDS011;2428;48.732;9.148;2023-05-07T08:12:07;2.63;;;2.43;;
4827;SDS011;2428;48.732;9.148;2023-05-07T08:14:33;2.77;;;2.57;;
4827;SDS011;2428;48.732;9.148;2023-05-07T08:16:59;7.20;;;2.80;;
4827;SDS011;2428;48.732;9.148;2023-05-07T08:19:25;2.70;;;2.40;;
4827;SDS011;2428;48.732;9.148;2023-05-07T08:21:51;2.70;;;1.90;;
4827;SDS011;2428;48.732;9.148;2023-05-07T08:24:17;2.60;;;2.40;;
4827;SDS011;2428;48.732;9.148;2023-05-07T08:26:43;3.47;;;3.17;;
4827;SDS011;2428;48.732;9.148;2023-05-07T08:29:09;3.20;;;2.90;;
4827;SDS011;2428;48.732;9.148;2023-05-07T08:31:37;2.80;;;2.40;;
4827;SDS011;2428;48.732;9.148;2023-05-07T08:34:06;2.87;;;2.63;;
4827;SDS011;2428;48.732;9.148;2023-05-07T08:36:31;2.30;;;2.10;;
4827;SDS011;2428;48.732;9.148;2023-05-07T08:38:57;3.10;;;2.87;;
4827;SDS011;2428;48.732;9.148;2023-05-07T08:41:24;3.27;;;2.80;;
4827;SDS011;2428;48.732;9.148;2023-05-07T08:43:50;3.07;;;2.87;;
4827;SDS011;2428;48.732;9.148;2023-05-07T08:46:20;2.97;;;2.70;;
4827;SDS011;2428;48.732;9.148;2023-05-07T08:48:50;2.53;;;2.33;;
4827;SDS011;2428;48.732;9.148;2023-05-07T08:51:17;3.23;;;2.60;;
4827;SDS011;2428;48.732;9.148;2023-05-07T08:53:44;2.60;;;2.40;;
4827;SDS011;2428;48.732;9.148;2023-05-07T08:56:11;1.97;;;1.77;;
4827;SDS011;2428;48.732;9.148;2023-05-07T08:58:37;2.57;;;2.37;;
4827;SDS011;2428;48.732;9.148;2023-05-07T09:01:10;2.67;;;2.47;;
4827;SDS011;2428;48.732;9.148;2023-05-07T09:03:39;3.20;;;2.90;;
4827;SDS011;2428;48.732;9.148;2023-05-07T09:06:05;2.77;;;2.57;;
4827;SDS011;2428;48.732;9.148;2023-05-07T09:08:32;2.47;;;2.37;;
4827;SDS011;2428;48.732;9.148;2023-05-07T09:10:59;2.20;;;2.00;;
4827;SDS011;2428;48.732;9.148;2023-05-07T09:13:24;2.27;;;1.93;;
4827;SDS011;2428;48.732;9.148;2023-05-07T09:15:51;2.60;;;2.40;;
4827;SDS011;2428;48.732;9.148;2023-05-07T09:18:17;2.43;;;2.27;;
4827;SDS011;2428;48.732;9.148;2023-05-07T09:20:43;3.20;;;3.00;;
4827;SDS011;2428;48.732;9.148;2023-05-07T09:23:08;3.20;;;3.00;;
4827;SDS011;2428;48.732;9.148;2023-05-07T09:25:34;2.40;;;2.20;;
4827;SDS011;2428;48.732;9.148;2023-05-07T09:28:01;2.87;;;2.60;;
4827;SDS011;2428;48.732;9.148;2023-05-07T09:30:28;4.03;;;3.17;;
4827;SDS011;2428;48.732;9.148;2023-05-07T09:32:55;2.77;;;2.47;;
4827;SDS011;2428;48.732;9.148;2023-05-07T09:35:25;3.07;;;2.30;;
4827;SDS011;2428;48.732;9.148;2023-05-07T09:37:57;2.87;;;2.60;;
4827;SDS011;2428;48.732;9.148;2023-05-07T09:40:25;2.80;;;2.60;;
4827;SDS011;2428;48.732;9.148;2023-05-07T09:42:53;2.17;;;2.07;;
4827;SDS011;2428;48.732;9.148;2023-05-07T09:45:25;2.33;;;2.13;;
4827;SDS011;2428;48.732;9.148;2023-05-07T09:47:55;2.67;;;2.47;;
4827;SDS011;2428;48.732;9.148;2023-05-07T09:50:25;2.90;;;2.43;;
4827;SDS011;2428;48.732;9.148;2023-05-07T09:52:55;2.80;;;2.60;;
4827;SDS011;2428;48.732;9.148;2023-05-07T09:55:22;2.57;;;2.37;;
4827;SDS011;2428;48.732;9.148;2023-05-07T09:57:50;3.17;;;2.10;;
4827;SDS011;2428;48.732;9.148;2023-05-07T10:00:18;2.87;;;2.20;;
4827;SDS011;2428;48.732;9.148;2023-05-07T10:02:50;2.10;;;2.00;;
4827;SDS011;2428;48.732;9.148;2023-05-07T10:05:19;5.60;;;2.50;;
4827;SDS011;2428;48.732;9.148;2023-05-07T10:07:46;2.70;;;2.10;;
4827;SDS011;2428;48.732;9.148;2023-05-07T10:10:12;2.20;;;1.97;;
4827;SDS011;2428;48.732;9.148;2023-05-07T10:12:39;2.40;;;2.20;;
4827;SDS011;2428;48.732;9.148;2023-05-07T10:15:06;2.00;;;1.90;;
4827;SDS011;2428;48.732;9.148;2023-05-07T10:17:35;3.23;;;2.77;;
4827;SDS011;2428;48.732;9.148;2023-05-07T10:20:01;2.37;;;2.20;;
4827;SDS011;2428;48.732;9.148;2023-05-07T10:22:28;2.30;;;2.10;;
4827;SDS011;2428;48.732;9.148;2023-05-07T10:24:57;1.63;;;1.53;;
4827;SDS011;2428;48.732;9.148;2023-05-07T10:27:27;1.80;;;1.70;;
4827;SDS011;2428;48.732;9.148;2023-05-07T10:35:19;2.00;;;1.90;;
4827;SDS011;2428;48.732;9.148;2023-05-07T10:37:47;1.63;;;1.53;;
4827;SDS011;2428;48.732;9.148;2023-05-07T10:40:14;1.63;;;1.53;;
4827;SDS011;2428;48.732;9.148;2023-05-07T10:42:52;1.70;;;1.60;;
4827;SDS011;2428;48.732;9.148;2023-05-07T10:45:25;1.70;;;1.53;;
4827;SDS011;2428;48.732;9.148;2023-05-07T10:50:42;1.50;;;1.40;;
4827;SDS011;2428;48.732;9.148;2023-05-07T10:55:44;1.43;;;1.33;;
4827;SDS011;2428;48.732;9.148;2023-05-07T11:03:26;1.67;;;1.57;;
4827;SDS011;2428;48.732;9.148;2023-05-07T11:11:17;2.13;;;1.93;;
4827;SDS011;2428;48.732;9.148;2023-05-07T11:13:45;1.70;;;1.60;;
4827;SDS011;2428;48.732;9.148;2023-05-07T11:18:48;1.47;;;1.37;;
4827;SDS011;2428;48.732;9.148;2023-05-07T11:24:02;1.60;;;1.50;;
4827;SDS011;2428;48.732;9.148;2023-05-07T11:26:30;1.83;;;1.73;;
4827;SDS011;2428;48.732;9.148;2023-05-07T11:29:10;2.27;;;1.60;;
4827;SDS011;2428;48.732;9.148;2023-05-07T11:31:49;1.90;;;1.80;;
4827;SDS011;2428;48.732;9.148;2023-05-07T11:34:20;1.90;;;1.70;;
4827;SDS011;2428;48.732;9.148;2023-05-07T11:36:47;1.63;;;1.53;;
4827;SDS011;2428;48.732;9.148;2023-05-07T11:39:27;2.37;;;2.17;;
4827;SDS011;2428;48.732;9.148;2023-05-07T11:41:53;2.13;;;1.70;;
4827;SDS011;2428;48.732;9.148;2023-05-07T11:44:19;1.80;;;1.70;;
4827;SDS011;2428;48.732;9.148;2023-05-07T11:46:45;2.30;;;2.10;;
4827;SDS011;2428;48.732;9.148;2023-05-07T11:49:11;2.20;;;2.00;;
4827;SDS011;2428;48.732;9.148;2023-05-07T11:51:37;2.60;;;2.40;;
4827;SDS011;2428;48.732;9.148;2023-05-07T11:54:03;1.97;;;1.80;;
4827;SDS011;2428;48.732;9.148;2023-05-07T11:56:33;1.47;;;1.37;;
4827;SDS011;2428;48.732;9.148;2023-05-07T11:59:00;1.67;;;1.57;;
4827;SDS011;2428;48.732;9.148;2023-05-07T12:01:26;1.93;;;1.83;;
4827;SDS011;2428;48.732;9.148;2023-05-07T12:03:51;2.77;;;2.33;;
4827;SDS011;2428;48.732;9.148;2023-05-07T12:06:18;1.97;;;1.73;;
4827;SDS011;2428;48.732;9.148;2023-05-07T12:08:44;2.00;;;1.90;;
4827;SDS011;2428;48.732;9.148;2023-05-07T12:11:23;2.20;;;2.07;;
4827;SDS011;2428;48.732;9.148;2023-05-07T12:13:50;2.00;;;1.90;;
4827;SDS011;2428;48.732;9.148;2023-05-07T12:16:16;2.63;;;2.43;;
4827;SDS011;2428;48.732;9.148;2023-05-07T12:18:44;2.50;;;2.30;;
4827;SDS011;2428;48.732;9.148;2023-05-07T12:21:10;2.93;;;2.73;;
4827;SDS011;2428;48.732;9.148;2023-05-07T12:23:36;2.00;;;1.90;;
4827;SDS011;2428;48.732;9.148;2023-05-07T12:26:03;2.50;;;1.43;;
4827;SDS011;2428;48.732;9.148;2023-05-07T12:28:29;1.50;;;1.40;;
4827;SDS011;2428;48.732;9.148;2023-05-07T12:30:55;1.77;;;1.50;;
4827;SDS011;2428;48.732;9.148;2023-05-07T12:33:24;1.50;;;1.40;;
4827;SDS011;2428;48.732;9.148;2023-05-07T12:35:52;1.30;;;1.20;;
4827;SDS011;2428;48.732;9.148;2023-05-07T12:38:19;1.60;;;1.50;;
4827;SDS011;2428;48.732;9.148;2023-05-07T12:40:45;1.60;;;1.30;;
4827;SDS011;2428;48.732;9.148;2023-05-07T12:43:19;0.93;;;0.93;;
4827;SDS011;2428;48.732;9.148;2023-05-07T12:45:45;1.63;;;0.80;;
4827;SDS011;2428;48.732;9.148;2023-05-07T12:48:13;1.47;;;0.93;;
4827;SDS011;2428;48.732;9.148;2023-05-07T12:50:39;0.70;;;0.70;;
4827;SDS011;2428;48.732;9.148;2023-05-07T12:53:05;1.10;;;1.00;;
4827;SDS011;2428;48.732;9.148;2023-05-07T12:55:39;1.03;;;0.93;;
4827;SDS011;2428;48.732;9.148;2023-05-07T12:58:19;0.70;;;0.70;;
4827;SDS011;2428;48.732;9.148;2023-05-07T13:00:48;0.87;;;0.60;;
4827;SDS011;2428;48.732;9.148;2023-05-07T13:03:21;0.90;;;0.70;;
4827;SDS011;2428;48.732;9.148;2023-05-07T13:05:49;1.30;;;1.10;;
4827;SDS011;2428;48.732;9.148;2023-05-07T13:08:25;0.90;;;0.90;;
4827;SDS011;2428;48.732;9.148;2023-05-07T13:10:52;1.83;;;1.30;;
4827;SDS011;2428;48.732;9.148;2023-05-07T13:13:18;1.70;;;1.00;;
4827;SDS011;2428;48.732;9.148;2023-05-07T13:15:45;2.00;;;1.90;;
4827;SDS011;2428;48.732;9.148;2023-05-07T13:18:11;1.43;;;0.90;;
4827;SDS011;2428;48.732;9.148;2023-05-07T13:20:36;1.23;;;1.10;;
4827;SDS011;2428;48.732;9.148;2023-05-07T13:23:02;1.50;;;1.00;;
4827;SDS011;2428;48.732;9.148;2023-05-07T13:25:29;1.20;;;1.13;;
4827;SDS011;2428;48.732;9.148;2023-05-07T13:27:56;1.20;;;1.10;;
4827;SDS011;2428;48.732;9.148;2023-05-07T13:30:22;1.07;;;0.97;;
4827;SDS011;2428;48.732;9.148;2023-05-07T13:32:48;0.93;;;0.83;;
4827;SDS011;2428;48.732;9.148;2023-05-07T13:35:14;1.77;;;0.80;;
4827;SDS011;2428;48.732;9.148;2023-05-07T13:37:40;0.80;;;0.77;;
4827;SDS011;2428;48.732;9.148;2023-05-07T13:40:06;1.20;;;1.10;;
4827;SDS011;2428;48.732;9.148;2023-05-07T13:42:32;0.93;;;0.90;;
4827;SDS011;2428;48.732;9.148;2023-05-07T13:44:58;1.30;;;1.10;;
4827;SDS011;2428;48.732;9.148;2023-05-07T13:47:23;2.07;;;1.10;;
4827;SDS011;2428;48.732;9.148;2023-05-07T13:49:49;0.80;;;0.80;;
4827;SDS011;2428;48.732;9.148;2023-05-07T13:52:15;1.10;;;0.97;;
4827;SDS011;2428;48.732;9.148;2023-05-07T13:54:41;1.27;;;1.03;;
4827;SDS011;2428;48.732;9.148;2023-05-07T13:57:07;1.30;;;1.20;;
4827;SDS011;2428;48.732;9.148;2023-05-07T13:59:33;1.30;;;1.20;;
4827;SDS011;2428;48.732;9.148;2023-05-07T14:01:58;1.13;;;1.03;;
4827;SDS011;2428;48.732;9.148;2023-05-07T14:04:24;1.50;;;1.40;;
4827;SDS011;2428;48.732;9.148;2023-05-07T14:06:50;2.37;;;1.80;;
4827;SDS011;2428;48.732;9.148;2023-05-07T14:09:16;1.50;;;1.40;;
4827;SDS011;2428;48.732;9.148;2023-05-07T14:11:41;1.50;;;1.40;;
4827;SDS011;2428;48.732;9.148;2023-05-07T14:14:07;2.50;;;1.47;;
4827;SDS011;2428;48.732;9.148;2023-05-07T14:16:35;1.50;;;1.40;;
4827;SDS011;2428;48.732;9.148;2023-05-07T14:19:01;1.90;;;1.70;;
4827;SDS011;2428;48.732;9.148;2023-05-07T14:21:27;2.13;;;1.70;;
4827;SDS011;2428;48.732;9.148;2023-05-07T14:23:52;1.57;;;1.47;;
4827;SDS011;2428;48.732;9.148;2023-05-07T14:26:18;3.03;;;1.80;;
4827;SDS011;2428;48.732;9.148;2023-05-07T14:28:45;1.90;;;1.77;;
4827;SDS011;2428;48.732;9.148;2023-05-07T14:31:11;0.97;;;0.97;;
4827;SDS011;2428;48.732;9.148;2023-05-07T14:33:37;1.87;;;1.77;;
4827;SDS011;2428;48.732;9.148;2023-05-07T14:36:03;2.10;;;2.00;;
4827;SDS011;2428;48.732;9.148;2023-05-07T14:38:29;1.90;;;1.33;;
4827;SDS011;2428;48.732;9.148;2023-05-07T14:40:55;2.20;;;1.63;;
4827;SDS011;2428;48.732;9.148;2023-05-07T14:43:21;2.70;;;2.10;;
4827;SDS011;2428;48.732;9.148;2023-05-07T14:45:47;2.53;;;2.10;;
4827;SDS011;2428;48.732;9.148;2023-05-07T14:48:12;1.97;;;1.77;;
4827;SDS011;2428;48.732;9.148;2023-05-07T14:50:40;2.30;;;2.07;;
4827;SDS011;2428;48.732;9.148;2023-05-07T14:53:06;2.40;;;2.10;;
4827;SDS011;2428;48.732;9.148;2023-05-07T14:55:33;1.77;;;1.67;;
4827;SDS011;2428;48.732;9.148;2023-05-07T14:57:59;2.20;;;1.60;;
4827;SDS011;2428;48.732;9.148;2023-05-07T15:00:25;1.53;;;1.43;;
4827;SDS011;2428;48.732;9.148;2023-05-07T15:02:51;1.90;;;1.80;;
4827;SDS011;2428;48.732;9.148;2023-05-07T15:05:16;2.03;;;1.80;;
4827;SDS011;2428;48.732;9.148;2023-05-07T15:07:44;3.60;;;2.60;;
4827;SDS011;2428;48.732;9.148;2023-05-07T15:10:09;3.27;;;2.33;;
4827;SDS011;2428;48.732;9.148;2023-05-07T15:12:35;2.90;;;1.50;;
4827;SDS011;2428;48.732;9.148;2023-05-07T15:15:01;3.03;;;2.10;;
4827;SDS011;2428;48.732;9.148;2023-05-07T15:17:27;2.20;;;1.43;;
4827;SDS011;2428;48.732;9.148;2023-05-07T15:19:52;2.00;;;1.90;;
4827;SDS011;2428;48.732;9.148;2023-05-07T15:22:18;3.43;;;2.53;;
4827;SDS011;2428;48.732;9.148;2023-05-07T15:24:44;2.13;;;1.90;;
4827;SDS011;2428;48.732;9.148;2023-05-07T15:27:09;2.10;;;2.00;;
4827;SDS011;2428;48.732;9.148;2023-05-07T15:29:35;4.43;;;1.80;;
4827;SDS011;2428;48.732;9.148;2023-05-07T15:32:01;2.47;;;2.30;;
4827;SDS011;2428;48.732;9.148;2023-05-07T15:34:26;2.90;;;2.20;;
4827;SDS011;2428;48.732;9.148;2023-05-07T15:36:52;1.70;;;1.60;;